createdAt,value
2022-08-04T00:00:46.695Z,16.70
2022-08-04T00:03:20.704Z,16.69
2022-08-04T00:06:00.126Z,16.68
2022-08-04T00:08:41.574Z,16.70
2022-08-04T00:11:15.714Z,16.69
2022-08-04T00:13:58.106Z,16.71
2022-08-04T00:16:38.381Z,16.70
2022-08-04T00:19:12.297Z,16.65
2022-08-04T00:21:45.662Z,16.64
2022-08-04T00:24:15.801Z,16.61
2022-08-04T00:26:45.091Z,16.63
2022-08-04T00:29:13.349Z,16.63
2022-08-04T00:31:56.475Z,16.59
2022-08-04T00:34:28.185Z,16.52
2022-08-04T00:36:57.869Z,16.53
2022-08-04T00:39:27.268Z,16.51
2022-08-04T00:42:27.606Z,16.50
2022-08-04T00:45:07.414Z,16.46
2022-08-04T00:47:59.296Z,16.44
2022-08-04T00:50:31.179Z,16.36
2022-08-04T00:53:09.541Z,16.34
2022-08-04T00:56:05.103Z,16.25
2022-08-04T00:58:52.044Z,16.27
2022-08-04T01:01:42.127Z,16.26
2022-08-04T01:04:22.404Z,16.19
2022-08-04T01:07:08.248Z,16.15
2022-08-04T01:09:51.545Z,16.20
2022-08-04T01:12:38.887Z,16.15
2022-08-04T01:15:09.288Z,16.15
2022-08-04T01:17:49.691Z,16.13
2022-08-04T01:20:25.984Z,16.14
2022-08-04T01:23:25.215Z,16.04
2022-08-04T01:26:42.476Z,16.04
2022-08-04T01:29:22.240Z,15.91
2022-08-04T01:32:01.481Z,15.86
2022-08-04T01:34:32.563Z,15.84
2022-08-04T01:37:08.934Z,15.79
2022-08-04T01:39:42.296Z,15.78
2022-08-04T01:42:18.802Z,15.73
2022-08-04T01:45:05.611Z,15.75
2022-08-04T01:47:36.689Z,15.74
2022-08-04T01:50:08.204Z,15.68
2022-08-04T01:52:36.751Z,15.65
2022-08-04T01:55:09.477Z,15.62
2022-08-04T01:57:42.876Z,15.60
2022-08-04T02:00:15.351Z,15.54
2022-08-04T02:02:43.839Z,15.56
2022-08-04T02:05:12.756Z,15.58
2022-08-04T02:07:51.746Z,15.54
2022-08-04T02:10:29.001Z,15.48
2022-08-04T02:13:11.620Z,15.44
2022-08-04T02:15:54.715Z,15.44
2022-08-04T02:18:26.176Z,15.41
2022-08-04T02:20:59.429Z,15.41
2022-08-04T02:23:32.073Z,15.39
2022-08-04T02:26:04.129Z,15.36
2022-08-04T02:28:37.392Z,15.34
2022-08-04T02:31:15.723Z,15.28
2022-08-04T02:33:46.359Z,15.33
2022-08-04T02:36:22.314Z,15.31
2022-08-04T02:38:57.415Z,15.27
2022-08-04T02:41:27.934Z,15.27
2022-08-04T02:43:58.835Z,15.16
2022-08-04T02:46:29.697Z,15.16
2022-08-04T02:48:58.073Z,15.12
2022-08-04T02:51:29.664Z,15.08
2022-08-04T02:53:58.150Z,14.87
2022-08-04T02:56:29.172Z,15.01
2022-08-04T02:59:00.575Z,14.94
2022-08-04T03:01:30.619Z,14.92
2022-08-04T03:04:24.175Z,14.90
2022-08-04T03:07:34.982Z,14.85
2022-08-04T03:10:39.980Z,14.83
2022-08-04T03:13:39.336Z,14.66
2022-08-04T03:16:48.818Z,14.67
2022-08-04T03:20:06.251Z,14.72
2022-08-04T03:23:14.043Z,14.64
2022-08-04T03:26:24.685Z,14.65
2022-08-04T03:29:26.046Z,14.59
2022-08-04T03:32:44.890Z,14.53
2022-08-04T03:35:48.754Z,14.64
2022-08-04T03:38:55.777Z,14.54
2022-08-04T03:41:51.775Z,14.57
2022-08-04T03:45:23.453Z,14.61
2022-08-04T03:48:15.111Z,14.48
2022-08-04T03:51:35.556Z,14.46
2022-08-04T03:54:41.129Z,14.33
2022-08-04T03:57:35.615Z,14.37
2022-08-04T04:00:10.844Z,14.27
2022-08-04T04:02:54.692Z,14.32
2022-08-04T04:05:59.919Z,14.38
2022-08-04T04:08:59.402Z,14.34
2022-08-04T04:11:57.374Z,14.37
2022-08-04T04:14:51.040Z,14.35
2022-08-04T04:17:49.057Z,14.23
2022-08-04T04:20:39.243Z,14.19
2022-08-04T04:23:24.279Z,14.20
2022-08-04T04:26:08.442Z,14.21
2022-08-04T04:29:01.592Z,14.17
2022-08-04T04:31:44.815Z,14.12
2022-08-04T04:34:25.787Z,14.09
2022-08-04T04:37:14.127Z,14.08
2022-08-04T04:39:53.453Z,14.12
2022-08-04T04:42:55.805Z,14.09
2022-08-04T04:45:28.366Z,14.11
2022-08-04T04:48:09.662Z,14.18
2022-08-04T04:50:53.327Z,14.22
2022-08-04T04:53:28.963Z,14.21
2022-08-04T04:56:04.784Z,14.20
2022-08-04T04:58:37.298Z,14.16
2022-08-04T05:01:31.690Z,14.08
2022-08-04T05:04:44.214Z,14.10
2022-08-04T05:07:40.360Z,14.14
2022-08-04T05:10:23.871Z,14.21
2022-08-04T05:14:37.544Z,14.26
2022-08-04T05:15:57.732Z,14.24
2022-08-04T05:18:30.850Z,14.29
2022-08-04T05:21:10.333Z,14.18
2022-08-04T05:23:44.303Z,14.28
2022-08-04T05:26:16.577Z,14.31
2022-08-04T05:28:49.692Z,14.29
2022-08-04T05:31:22.885Z,14.28
2022-08-04T05:33:55.722Z,14.30
2022-08-04T05:36:41.018Z,14.30
2022-08-04T05:39:17.014Z,14.31
2022-08-04T05:41:55.272Z,14.31
2022-08-04T05:44:26.367Z,14.38
2022-08-04T05:46:59.123Z,14.45
2022-08-04T05:49:29.904Z,14.53
2022-08-04T05:52:01.658Z,14.52
2022-08-04T05:54:32.155Z,14.54
2022-08-04T05:57:01.576Z,14.51
2022-08-04T05:59:30.746Z,14.57
2022-08-04T06:02:02.280Z,14.64
2022-08-04T06:04:34.355Z,14.54
2022-08-04T06:07:03.543Z,14.62
2022-08-04T06:09:32.651Z,14.65
2022-08-04T06:12:04.830Z,14.65
2022-08-04T06:14:38.743Z,14.65
2022-08-04T06:18:33.712Z,14.71
2022-08-04T06:20:19.139Z,14.75
2022-08-04T06:22:55.186Z,14.80
2022-08-04T06:25:27.070Z,14.86
2022-08-04T06:27:57.704Z,14.93
2022-08-04T06:30:28.713Z,15.01
2022-08-04T06:33:03.550Z,15.01
2022-08-04T06:35:34.893Z,15.13
2022-08-04T06:38:04.637Z,15.35
2022-08-04T06:40:34.667Z,15.75
2022-08-04T06:43:04.292Z,16.22
2022-08-04T06:45:35.841Z,16.47
2022-08-04T06:48:07.702Z,16.49
2022-08-04T06:51:26.165Z,16.43
2022-08-04T06:53:26.800Z,16.29
2022-08-04T06:55:57.634Z,16.31
2022-08-04T06:58:27.456Z,16.10
2022-08-04T07:01:01.969Z,16.00
2022-08-04T07:03:33.320Z,15.97
2022-08-04T07:06:06.076Z,15.96
2022-08-04T07:08:42.475Z,15.93
2022-08-04T07:11:11.413Z,15.90
2022-08-04T07:13:44.864Z,15.93
2022-08-04T07:16:15.944Z,16.32
2022-08-04T07:18:45.835Z,16.84
2022-08-04T07:21:24.068Z,17.29
2022-08-04T07:23:52.834Z,17.70
2022-08-04T07:26:21.083Z,18.07
2022-08-04T07:28:49.298Z,18.30
2022-08-04T07:31:33.408Z,18.52
2022-08-04T07:34:16.575Z,18.64
2022-08-04T07:36:51.241Z,18.65
2022-08-04T07:39:28.438Z,18.65
2022-08-04T07:41:59.402Z,18.60
2022-08-04T07:44:31.483Z,18.42
2022-08-04T07:47:00.774Z,18.20
2022-08-04T07:49:54.519Z,18.10
2022-08-04T07:52:20.107Z,17.99
2022-08-04T07:54:49.051Z,17.93
2022-08-04T07:57:40.315Z,17.88
2022-08-04T08:00:10.574Z,17.89
2022-08-04T08:02:40.086Z,17.84
2022-08-04T08:05:14.079Z,17.81
2022-08-04T08:07:50.719Z,17.82
2022-08-04T08:10:25.168Z,17.89
2022-08-04T08:12:54.582Z,17.93
2022-08-04T08:15:23.702Z,17.94
2022-08-04T08:17:57.842Z,17.96
2022-08-04T08:20:31.403Z,17.85
2022-08-04T08:23:00.189Z,17.94
2022-08-04T08:25:28.804Z,17.97
2022-08-04T08:27:57.154Z,18.04
2022-08-04T08:30:31.477Z,18.09
2022-08-04T08:33:03.776Z,18.09
2022-08-04T08:35:54.386Z,18.13
2022-08-04T08:38:39.279Z,18.20
2022-08-04T08:41:51.980Z,18.15
2022-08-04T08:44:50.043Z,18.20
2022-08-04T08:48:00.023Z,18.29
2022-08-04T08:50:57.709Z,18.37
2022-08-04T08:53:44.824Z,18.48
2022-08-04T08:56:31.290Z,18.55
2022-08-04T08:59:25.330Z,18.63
2022-08-04T09:02:22.177Z,18.73
2022-08-04T09:05:08.663Z,18.73
2022-08-04T09:07:55.177Z,18.60
2022-08-04T09:10:33.343Z,18.52
2022-08-04T09:13:07.622Z,18.58
2022-08-04T09:15:40.795Z,18.65
2022-08-04T09:18:15.145Z,18.73
2022-08-04T09:20:50.027Z,18.80
2022-08-04T09:23:24.957Z,18.84
2022-08-04T09:26:02.959Z,18.98
2022-08-04T09:28:53.663Z,19.07
2022-08-04T09:31:25.803Z,18.96
2022-08-04T09:34:00.289Z,18.87
2022-08-04T09:36:37.120Z,19.03
2022-08-04T09:39:11.567Z,19.20
2022-08-04T09:42:01.409Z,19.37
2022-08-04T09:44:52.267Z,19.56
2022-08-04T09:47:39.797Z,19.68
2022-08-04T09:50:33.507Z,19.52
2022-08-04T09:53:13.491Z,19.53
2022-08-04T09:56:01.061Z,19.55
2022-08-04T09:58:45.682Z,19.55
2022-08-04T10:01:23.153Z,19.37
2022-08-04T10:03:54.547Z,19.50
2022-08-04T10:06:44.107Z,19.69
2022-08-04T10:09:32.159Z,19.66
2022-08-04T10:12:15.624Z,19.44
2022-08-04T10:14:54.079Z,19.37
2022-08-04T10:17:33.630Z,19.64
2022-08-04T10:20:11.090Z,19.89
2022-08-04T10:23:09.235Z,20.10
2022-08-04T10:26:05.486Z,20.19
2022-08-04T10:28:37.003Z,20.37
2022-08-04T10:31:12.042Z,20.25
2022-08-04T10:33:51.033Z,20.20
2022-08-04T10:36:24.099Z,20.37
2022-08-04T10:38:58.820Z,20.49
2022-08-04T10:41:34.144Z,20.64
2022-08-04T10:44:24.843Z,20.85
2022-08-04T10:46:58.642Z,20.92
2022-08-04T10:49:35.697Z,20.98
2022-08-04T10:52:09.884Z,21.02
2022-08-04T10:54:48.413Z,21.07
2022-08-04T10:57:22.593Z,21.28
2022-08-04T10:59:58.028Z,21.27
2022-08-04T11:02:39.420Z,21.06
2022-08-04T11:05:20.147Z,20.76
2022-08-04T11:07:51.904Z,20.72
2022-08-04T11:10:25.517Z,20.89
2022-08-04T11:12:59.134Z,20.98
2022-08-04T11:15:35.018Z,21.12
2022-08-04T11:18:16.208Z,21.39
2022-08-04T11:20:52.028Z,21.51
2022-08-04T11:23:25.320Z,21.29
2022-08-04T11:25:58.965Z,20.89
2022-08-04T11:28:38.600Z,20.79
2022-08-04T11:31:12.908Z,21.05
2022-08-04T11:33:49.336Z,21.31
2022-08-04T11:36:23.862Z,21.51
2022-08-04T11:39:00.841Z,21.76
2022-08-04T11:41:40.628Z,21.72
2022-08-04T11:44:13.331Z,21.68
2022-08-04T11:46:48.938Z,21.60
2022-08-04T11:49:28.428Z,21.59
2022-08-04T11:51:58.389Z,21.54
2022-08-04T11:54:27.936Z,21.36
2022-08-04T11:56:57.057Z,21.28
2022-08-04T11:59:28.635Z,21.57
2022-08-04T12:02:09.906Z,21.77
2022-08-04T12:04:59.024Z,21.89
2022-08-04T12:07:50.630Z,22.04
2022-08-04T12:10:38.024Z,22.31
2022-08-04T12:13:19.680Z,22.50
2022-08-04T12:15:57.555Z,22.31
2022-08-04T12:18:32.372Z,21.95
2022-08-04T12:21:06.290Z,21.59
2022-08-04T12:23:39.533Z,21.30
2022-08-04T12:26:10.765Z,21.12
2022-08-04T12:29:08.551Z,20.93
2022-08-04T12:31:32.472Z,20.89
2022-08-04T12:34:08.506Z,20.95
2022-08-04T12:36:41.727Z,20.96
2022-08-04T12:39:13.747Z,20.85
2022-08-04T12:41:49.781Z,20.74
2022-08-04T12:44:36.926Z,20.57
2022-08-04T12:47:27.235Z,20.65
2022-08-04T12:50:02.056Z,20.97
2022-08-04T12:53:00.940Z,21.24
2022-08-04T12:55:33.648Z,21.37
2022-08-04T12:58:04.188Z,21.40
2022-08-04T13:00:41.091Z,21.33
2022-08-04T13:03:13.331Z,21.22
2022-08-04T13:05:42.321Z,21.10
2022-08-04T13:08:15.610Z,21.27
2022-08-04T13:10:47.588Z,21.57
2022-08-04T13:13:19.491Z,21.64
2022-08-04T13:15:59.973Z,21.55
2022-08-04T13:18:32.474Z,21.33
2022-08-04T13:21:19.364Z,21.08
2022-08-04T13:24:10.252Z,21.00
2022-08-04T13:26:55.185Z,20.87
2022-08-04T13:29:57.889Z,20.91
2022-08-04T13:32:20.461Z,20.99
2022-08-04T13:34:52.399Z,21.27
2022-08-04T13:37:24.685Z,21.50
2022-08-04T13:39:56.586Z,21.65
2022-08-04T13:42:27.821Z,21.71
2022-08-04T13:44:59.394Z,21.79
2022-08-04T13:47:31.587Z,21.87
2022-08-04T13:50:17.728Z,21.97
2022-08-04T13:52:48.765Z,22.06
2022-08-04T13:55:23.600Z,22.02
2022-08-04T13:57:57.258Z,22.02
2022-08-04T14:00:29.942Z,22.07
2022-08-04T14:03:19.217Z,22.22
2022-08-04T14:06:16.311Z,22.41
2022-08-04T14:08:51.138Z,22.32
2022-08-04T14:12:10.825Z,22.47
2022-08-04T14:14:19.801Z,22.70
2022-08-04T14:17:00.577Z,22.84
2022-08-04T14:19:35.919Z,22.95
2022-08-04T14:22:04.779Z,23.14
2022-08-04T14:24:33.005Z,23.10
2022-08-04T14:27:02.868Z,23.04
2022-08-04T14:29:38.863Z,22.87
2022-08-04T14:32:14.652Z,22.56
2022-08-04T14:34:45.676Z,22.30
2022-08-04T14:37:19.855Z,21.99
2022-08-04T14:40:18.136Z,21.80
2022-08-04T14:42:55.504Z,21.55
2022-08-04T14:45:33.625Z,21.43
2022-08-04T14:48:03.731Z,21.22
2022-08-04T14:50:37.650Z,21.03
2022-08-04T14:53:08.196Z,20.91
2022-08-04T14:55:37.693Z,20.73
2022-08-04T14:58:36.646Z,20.59
2022-08-04T15:00:59.341Z,20.45
2022-08-04T15:03:29.488Z,20.29
2022-08-04T15:06:05.379Z,20.13
2022-08-04T15:08:36.513Z,20.04
2022-08-04T15:11:05.003Z,20.06
2022-08-04T15:13:35.041Z,20.09
2022-08-04T15:16:08.132Z,20.03
2022-08-04T15:18:39.816Z,20.13
2022-08-04T15:21:08.915Z,20.19
2022-08-04T15:23:39.695Z,20.45
2022-08-04T15:26:14.045Z,20.86
2022-08-04T15:28:50.373Z,21.16
2022-08-04T15:32:04.736Z,21.41
2022-08-04T15:34:13.789Z,21.55
2022-08-04T15:36:56.705Z,21.72
2022-08-04T15:39:37.233Z,21.90
2022-08-04T15:42:20.530Z,22.02
2022-08-04T15:46:32.940Z,22.01
2022-08-04T15:48:35.622Z,22.06
2022-08-04T15:51:15.099Z,22.21
2022-08-04T15:54:27.561Z,22.22
2022-08-04T15:57:02.702Z,22.25
2022-08-04T16:00:01.358Z,22.18
2022-08-04T16:02:40.735Z,22.28
2022-08-04T16:05:42.243Z,22.28
2022-08-04T16:08:19.327Z,22.26
2022-08-04T16:10:51.690Z,22.22
2022-08-04T16:13:22.642Z,22.05
2022-08-04T16:15:54.076Z,21.94
2022-08-04T16:18:26.658Z,21.84
2022-08-04T16:20:59.382Z,21.84
2022-08-04T16:24:02.138Z,21.69
2022-08-04T16:26:57.890Z,21.62
2022-08-04T16:29:30.566Z,21.53
2022-08-04T16:32:10.716Z,21.37
2022-08-04T16:34:50.348Z,21.33
2022-08-04T16:37:26.574Z,21.23
2022-08-04T16:40:38.733Z,21.05
2022-08-04T16:43:13.056Z,20.91
2022-08-04T16:45:54.193Z,20.80
2022-08-04T16:48:26.626Z,20.66
2022-08-04T16:51:03.168Z,20.56
2022-08-04T16:53:53.703Z,20.43
2022-08-04T16:56:34.185Z,20.42
2022-08-04T16:59:11.065Z,20.30
2022-08-04T17:01:45.910Z,20.27
2022-08-04T17:04:14.057Z,20.23
2022-08-04T17:06:43.648Z,20.26
2022-08-04T17:09:15.029Z,20.25
2022-08-04T17:11:44.344Z,20.34
2022-08-04T17:14:14.145Z,20.33
2022-08-04T17:16:44.155Z,20.38
2022-08-04T17:19:23.918Z,20.38
2022-08-04T17:22:03.010Z,20.39
2022-08-04T17:24:36.990Z,20.41
2022-08-04T17:28:05.763Z,20.49
2022-08-04T17:29:57.033Z,20.38
2022-08-04T17:32:25.512Z,20.35
2022-08-04T17:34:55.461Z,20.25
2022-08-04T17:37:39.838Z,20.12
2022-08-04T17:44:03.150Z,19.90
2022-08-04T17:46:29.592Z,19.83
2022-08-04T17:49:04.303Z,19.75
2022-08-04T17:52:05.434Z,19.70
2022-08-04T17:54:37.484Z,19.55
2022-08-04T18:00:19.623Z,19.41
2022-08-04T18:02:54.849Z,19.38
2022-08-04T18:05:50.325Z,19.42
2022-08-04T18:08:40.590Z,19.46
2022-08-04T18:11:06.324Z,19.49
2022-08-04T18:13:42.877Z,19.39
2022-08-04T18:16:22.248Z,19.35
2022-08-04T18:19:08.881Z,19.30
2022-08-04T18:21:45.688Z,19.27
2022-08-04T18:24:15.555Z,19.23
2022-08-04T18:26:45.878Z,19.18
2022-08-04T18:29:31.512Z,19.23
2022-08-04T18:32:00.390Z,19.23
2022-08-04T18:34:28.723Z,19.33
2022-08-04T18:36:58.999Z,19.34
2022-08-04T18:40:09.972Z,19.42
2022-08-04T18:42:18.138Z,19.42
2022-08-04T18:44:52.565Z,19.48
2022-08-04T18:47:23.161Z,19.45
2022-08-04T18:50:58.524Z,19.46
2022-08-04T18:52:45.318Z,19.41
2022-08-04T18:55:56.806Z,19.30
2022-08-04T18:58:08.501Z,19.21
2022-08-04T19:00:45.174Z,19.12
2022-08-04T19:06:03.133Z,19.03
2022-08-04T19:08:33.614Z,19.03
2022-08-04T19:11:37.335Z,18.97
2022-08-04T19:13:57.641Z,18.88
2022-08-04T19:16:28.892Z,18.81
2022-08-04T19:18:57.616Z,18.74
2022-08-04T19:22:00.952Z,18.70
2022-08-04T19:24:28.919Z,18.67
2022-08-04T19:27:06.385Z,18.64
2022-08-04T19:29:37.811Z,18.57
2022-08-04T19:32:13.772Z,18.44
2022-08-04T19:34:45.866Z,18.41
2022-08-04T19:37:57.658Z,18.32
2022-08-04T19:40:05.522Z,18.26
2022-08-04T19:42:34.798Z,18.22
2022-08-04T19:45:03.284Z,18.16
2022-08-04T19:48:16.689Z,18.09
2022-08-04T19:50:23.878Z,18.09
2022-08-04T19:52:52.947Z,18.09
2022-08-04T19:55:36.910Z,18.08
2022-08-04T19:58:08.746Z,18.02
2022-08-04T20:00:37.843Z,18.01
2022-08-04T20:03:11.702Z,18.00
2022-08-04T20:05:54.159Z,18.01
2022-08-04T20:08:24.990Z,17.98
2022-08-04T20:10:54.869Z,17.95
2022-08-04T20:13:25.518Z,17.96
2022-08-04T20:15:59.433Z,17.97
2022-08-04T20:18:36.782Z,17.97
2022-08-04T20:21:24.034Z,17.93
2022-08-04T20:23:57.776Z,17.91
2022-08-04T20:26:46.093Z,17.86
2022-08-04T20:29:37.090Z,17.80
2022-08-04T20:32:08.718Z,17.80
2022-08-04T20:34:40.202Z,17.70
2022-08-04T20:37:10.179Z,17.70
2022-08-04T20:39:38.929Z,17.67
2022-08-04T20:42:08.019Z,17.65
2022-08-04T20:44:42.151Z,17.73
2022-08-04T20:47:14.630Z,17.66
2022-08-04T20:49:44.836Z,17.53
2022-08-04T20:52:20.112Z,17.49
2022-08-04T20:54:49.330Z,17.46
2022-08-04T20:57:48.899Z,17.46
2022-08-04T21:00:13.672Z,17.43
2022-08-04T21:02:42.017Z,17.39
2022-08-04T21:05:14.239Z,17.36
2022-08-04T21:07:44.050Z,17.37
2022-08-04T21:10:17.211Z,17.35
2022-08-04T21:12:50.693Z,17.32
2022-08-04T21:15:24.974Z,17.26
2022-08-04T21:17:58.899Z,17.27
2022-08-04T21:20:35.315Z,17.25
2022-08-04T21:23:05.352Z,17.24
2022-08-04T21:25:42.760Z,17.23
2022-08-04T21:28:12.467Z,17.19
2022-08-04T21:30:52.457Z,17.10
2022-08-04T21:33:22.160Z,17.10
2022-08-04T21:35:54.603Z,17.08
2022-08-04T21:38:25.303Z,17.09
2022-08-04T21:40:58.951Z,17.06
2022-08-04T21:43:42.731Z,17.02
2022-08-04T21:46:12.097Z,17.00
2022-08-04T21:48:42.402Z,16.98
2022-08-04T21:51:57.095Z,16.96
2022-08-04T21:54:06.849Z,16.88
2022-08-04T21:56:35.265Z,16.91
2022-08-04T21:59:10.604Z,16.89
2022-08-04T22:01:52.332Z,16.87
2022-08-04T22:04:23.341Z,16.84
2022-08-04T22:06:53.217Z,16.85
2022-08-04T22:09:22.393Z,16.84
2022-08-04T22:11:51.941Z,16.83
2022-08-04T22:14:27.183Z,16.80
2022-08-04T22:16:56.603Z,16.77
2022-08-04T22:19:39.671Z,16.72
2022-08-04T22:22:24.471Z,16.73
2022-08-04T22:24:58.426Z,16.74
2022-08-04T22:27:47.829Z,16.72
2022-08-04T22:30:23.792Z,16.66
2022-08-04T22:32:51.964Z,16.63
2022-08-04T22:35:33.296Z,16.60
2022-08-04T22:38:24.062Z,16.58
2022-08-04T22:41:02.199Z,16.58
2022-08-04T22:43:33.234Z,16.57
2022-08-04T22:46:03.687Z,16.59
2022-08-04T22:48:33.590Z,16.56
2022-08-04T22:51:02.628Z,16.54
2022-08-04T22:53:32.880Z,16.54
2022-08-04T22:56:09.959Z,16.49
2022-08-04T22:58:45.130Z,16.40
2022-08-04T23:01:15.683Z,16.33
2022-08-04T23:03:50.902Z,16.27
2022-08-04T23:06:24.736Z,16.25
2022-08-04T23:08:54.844Z,16.26
2022-08-04T23:11:23.671Z,16.21
2022-08-04T23:13:51.921Z,16.19
2022-08-04T23:16:21.286Z,16.20
2022-08-04T23:18:52.962Z,16.17
2022-08-04T23:21:24.700Z,16.12
2022-08-04T23:24:00.651Z,16.10
2022-08-04T23:26:31.928Z,16.08
2022-08-04T23:29:03.664Z,16.04
2022-08-04T23:31:41.208Z,16.01
2022-08-04T23:34:21.623Z,16.01
2022-08-04T23:36:50.770Z,15.98
2022-08-04T23:39:20.511Z,15.97
2022-08-04T23:41:54.562Z,15.93
2022-08-04T23:44:26.876Z,15.90
2022-08-04T23:47:00.485Z,15.83
2022-08-04T23:49:44.373Z,15.81
2022-08-04T23:52:15.797Z,15.80
2022-08-04T23:54:58.176Z,15.78
2022-08-04T23:57:31.344Z,15.77
